Alexander City, AL

8:05 AM CDT on July 24, 2014 (GMT -0500)
Russell (KALX) Elev 686 ft | 32.91 °N, 85.96 °W | Change Station

Current weather conditions updated 10 minutes ago

Haze
Haze
78 °F
Feels Like 78 °F
N
0
Wind Variable Wind from North

Today is forecast to be nearly the same temperature as yesterday. Afternoon showers and thunderstorms.

Today
High -- | Low -- °F
--% Chance of Precip.
Yesterday
High -- | Low -- °F
Precip. -- in
5:51 AM 7:48 PM
Waning Crescent, 5% visible
Pressure 30.04 in
Visibility 5.0 miles
Clouds Scattered Clouds 300 ft
Dew Point 72 °F
Humidity 83%
Rainfall 0.00 in
Snow Depth Not available.
UV 2 out of 12
Pollen 3.80 out of 12
Ozone Good
PM2.5 Moderate
Flu Activity Not available.
METAR KALX 241255Z AUTO 00000KT 5SM HZ SCT003 26/22 A3004 RMK AO2 T02550224

More Conditions Fewer Conditions

Pressure 30.04 in
Visibility 5.0 miles
Clouds Scattered Clouds 300 ft
Dew Point 72 °F
Humidity 83%
Rainfall 0.00 in
Snow Depth Not available.
UV 2 out of 12
Pollen 3.80 out of 12
Ozone Good
PM2.5 Moderate
Flu Activity Not available.
METAR KALX 241255Z AUTO 00000KT 5SM HZ SCT003 26/22 A3004 RMK AO2 T02550224

More Conditions Fewer Conditions

10-Day Weather Forecast

Almanac

Astronomy

Jul. 24, 2014 Rise Set
Actual Time 5:51 AM CDT 7:48 PM CDT
Civil Twilight 5:24 AM CDT 8:15 PM CDT
Nautical Twilight 4:51 AM CDT 8:48 PM CDT
Astronomical Twilight 4:15 AM CDT 9:24 PM CDT
Moon 3:58 AM CDT 6:04 PM CDT
Length of Visible Light 14h 51m
Length of Day
13h 56m
Tomorrow will be 1m 19s shorter.
Waning Crescent, 5% of the Moon is Illuminated
Today
Waning Crescent
Jul 26
New
Aug 3
First Quarter
Aug 10
Full
Aug 17
Last Quarter

Today's Extremes

State Highs State Lows

Community

WunderPhotos

Upload Photos

1,736,993 photos uploaded!

Nearby

Air Quality

  Air Quality AQ Index Pollutant
Yesterday Good
PM10
Yesterday Good
OZONE
Current Moderate
PM2.5
Current Good
OZONE
Thursday Good
PM2.5
Thursday Good
OZONE

Snow Depth

Station Depth Elevation
No new snow has been reported.

Earthquake Activity

City Distance Mag. Time & Date
No recent earthquake activity has been reported nearby.
Minimum magnitude displayed is 2.5.

Coastal Water Temperatures

Place Temperature
No Stations Reporting

Nearby Weather Stations

Station Location Temp. Heat Index Dew Point Humidity Wind Precip. Elev Updated Type
Lake Martin West of Pitchford Hollow, Alexander City, AL 77.2 °F 79 °F 74 °F 91% NW  at  0.0 mph 0.00 in / hr 512 ft 8:05 AM CDT Rapid Fire
Riddle, Titus, AL 77.9 °F 80 °F 76 °F 95% South  at  2.2 mph 0.00 in / hr 500 ft 8:05 AM CDT Rapid Fire
Franklyn Farm, Tallassee, AL 81.6 °F 86 °F 71 °F 70% NE  at  0.0 mph 0.00 in / hr 435 ft 8:05 AM CDT Rapid Fire

Show More Stations Show Fewer Stations